sensor_id;sensor_type;location;lat;lon;timestamp;temperature;humidity
24374;DHT22;12498;50.880;12.096;2024-03-29T00:01:32;7.70;99.90
24374;DHT22;12498;50.880;12.096;2024-03-29T00:03:57;7.70;99.90
24374;DHT22;12498;50.880;12.096;2024-03-29T00:06:23;7.70;99.90
24374;DHT22;12498;50.880;12.096;2024-03-29T00:08:48;7.70;99.90
24374;DHT22;12498;50.880;12.096;2024-03-29T00:11:14;7.70;99.90
24374;DHT22;12498;50.880;12.096;2024-03-29T00:13:39;9.00;99.90
24374;DHT22;12498;50.880;12.096;2024-03-29T00:16:05;7.60;99.90
24374;DHT22;12498;50.880;12.096;2024-03-29T00:18:31;7.60;99.90
24374;DHT22;12498;50.880;12.096;2024-03-29T00:20:56;7.60;99.90
24374;DHT22;12498;50.880;12.096;2024-03-29T00:23:22;8.20;99.90
24374;DHT22;12498;50.880;12.096;2024-03-29T00:25:47;7.50;99.90
24374;DHT22;12498;50.880;12.096;2024-03-29T00:28:13;7.60;99.90
24374;DHT22;12498;50.880;12.096;2024-03-29T00:30:38;7.50;99.90
24374;DHT22;12498;50.880;12.096;2024-03-29T00:33:04;7.90;99.90
24374;DHT22;12498;50.880;12.096;2024-03-29T00:35:30;7.40;99.90
24374;DHT22;12498;50.880;12.096;2024-03-29T00:37:56;9.10;99.90
24374;DHT22;12498;50.880;12.096;2024-03-29T00:40:21;8.00;99.90
24374;DHT22;12498;50.880;12.096;2024-03-29T00:42:47;8.80;99.90
24374;DHT22;12498;50.880;12.096;2024-03-29T00:45:12;7.20;99.90
24374;DHT22;12498;50.880;12.096;2024-03-29T00:47:38;7.90;99.90
24374;DHT22;12498;50.880;12.096;2024-03-29T00:50:04;7.20;99.90
24374;DHT22;12498;50.880;12.096;2024-03-29T00:52:29;7.20;99.90
24374;DHT22;12498;50.880;12.096;2024-03-29T00:54:55;7.20;99.90
24374;DHT22;12498;50.880;12.096;2024-03-29T00:57:21;7.10;99.90
24374;DHT22;12498;50.880;12.096;2024-03-29T00:59:46;9.50;99.90
24374;DHT22;12498;50.880;12.096;2024-03-29T01:02:12;8.30;99.90
24374;DHT22;12498;50.880;12.096;2024-03-29T01:04:37;7.20;99.90
24374;DHT22;12498;50.880;12.096;2024-03-29T01:07:03;7.20;99.90
24374;DHT22;12498;50.880;12.096;2024-03-29T01:09:29;7.20;99.90
24374;DHT22;12498;50.880;12.096;2024-03-29T01:11:55;7.20;99.90
24374;DHT22;12498;50.880;12.096;2024-03-29T01:14:20;7.20;99.90
24374;DHT22;12498;50.880;12.096;2024-03-29T01:16:46;7.20;99.90
24374;DHT22;12498;50.880;12.096;2024-03-29T01:19:11;7.20;99.90
24374;DHT22;12498;50.880;12.096;2024-03-29T01:21:37;7.20;99.90
24374;DHT22;12498;50.880;12.096;2024-03-29T01:24:02;7.20;99.90
24374;DHT22;12498;50.880;12.096;2024-03-29T01:26:28;7.10;99.90
24374;DHT22;12498;50.880;12.096;2024-03-29T01:28:53;7.30;99.90
24374;DHT22;12498;50.880;12.096;2024-03-29T01:31:19;7.10;99.90
24374;DHT22;12498;50.880;12.096;2024-03-29T01:36:10;7.00;99.90
24374;DHT22;12498;50.880;12.096;2024-03-29T01:38:36;7.00;99.90
24374;DHT22;12498;50.880;12.096;2024-03-29T01:41:01;7.10;99.90
24374;DHT22;12498;50.880;12.096;2024-03-29T01:43:27;6.80;99.90
24374;DHT22;12498;50.880;12.096;2024-03-29T01:45:53;6.90;99.90
24374;DHT22;12498;50.880;12.096;2024-03-29T01:48:20;8.90;99.90
24374;DHT22;12498;50.880;12.096;2024-03-29T01:50:47;7.00;1.00
24374;DHT22;12498;50.880;12.096;2024-03-29T01:53:12;7.20;1.00
24374;DHT22;12498;50.880;12.096;2024-03-29T01:55:39;7.00;99.90
24374;DHT22;12498;50.880;12.096;2024-03-29T01:58:05;7.10;1.00
24374;DHT22;12498;50.880;12.096;2024-03-29T02:00:32;6.90;1.00
24374;DHT22;12498;50.880;12.096;2024-03-29T02:02:58;6.90;1.00
24374;DHT22;12498;50.880;12.096;2024-03-29T02:05:24;6.80;1.00
24374;DHT22;12498;50.880;12.096;2024-03-29T02:07:51;6.80;1.00
24374;DHT22;12498;50.880;12.096;2024-03-29T02:10:16;6.70;99.90
24374;DHT22;12498;50.880;12.096;2024-03-29T02:12:42;8.00;99.90
24374;DHT22;12498;50.880;12.096;2024-03-29T02:15:07;6.80;99.90
24374;DHT22;12498;50.880;12.096;2024-03-29T02:17:33;6.90;1.00
24374;DHT22;12498;50.880;12.096;2024-03-29T02:19:58;6.80;1.00
24374;DHT22;12498;50.880;12.096;2024-03-29T02:24:51;6.80;1.00
24374;DHT22;12498;50.880;12.096;2024-03-29T02:27:16;6.70;99.90
24374;DHT22;12498;50.880;12.096;2024-03-29T02:29:42;6.80;99.90
24374;DHT22;12498;50.880;12.096;2024-03-29T02:32:08;6.80;99.90
24374;DHT22;12498;50.880;12.096;2024-03-29T02:34:33;10.10;99.90
24374;DHT22;12498;50.880;12.096;2024-03-29T02:36:58;7.30;99.90
24374;DHT22;12498;50.880;12.096;2024-03-29T02:39:24;7.10;99.90
24374;DHT22;12498;50.880;12.096;2024-03-29T02:41:50;6.80;99.90
24374;DHT22;12498;50.880;12.096;2024-03-29T02:44:16;6.80;99.90
24374;DHT22;12498;50.880;12.096;2024-03-29T02:46:42;6.70;99.90
24374;DHT22;12498;50.880;12.096;2024-03-29T02:49:08;6.70;99.90
24374;DHT22;12498;50.880;12.096;2024-03-29T02:51:33;6.80;1.00
24374;DHT22;12498;50.880;12.096;2024-03-29T02:53:59;6.80;99.90
24374;DHT22;12498;50.880;12.096;2024-03-29T02:56:24;6.90;1.00
24374;DHT22;12498;50.880;12.096;2024-03-29T02:58:49;6.70;99.90
24374;DHT22;12498;50.880;12.096;2024-03-29T03:01:15;6.80;1.00
24374;DHT22;12498;50.880;12.096;2024-03-29T03:03:40;6.70;1.00
24374;DHT22;12498;50.880;12.096;2024-03-29T03:06:06;6.70;99.90
24374;DHT22;12498;50.880;12.096;2024-03-29T03:08:31;6.70;1.00
24374;DHT22;12498;50.880;12.096;2024-03-29T03:11:16;6.60;99.90
24374;DHT22;12498;50.880;12.096;2024-03-29T03:13:41;10.10;1.00
24374;DHT22;12498;50.880;12.096;2024-03-29T03:16:07;6.70;1.00
24374;DHT22;12498;50.880;12.096;2024-03-29T03:18:32;6.80;1.00
24374;DHT22;12498;50.880;12.096;2024-03-29T03:20:58;6.80;1.00
24374;DHT22;12498;50.880;12.096;2024-03-29T03:23:24;7.00;1.00
24374;DHT22;12498;50.880;12.096;2024-03-29T03:25:53;6.80;1.00
24374;DHT22;12498;50.880;12.096;2024-03-29T03:28:19;7.00;1.00
24374;DHT22;12498;50.880;12.096;2024-03-29T03:30:44;6.90;99.90
24374;DHT22;12498;50.880;12.096;2024-03-29T03:33:10;6.90;1.00
24374;DHT22;12498;50.880;12.096;2024-03-29T03:35:35;7.00;99.90
24374;DHT22;12498;50.880;12.096;2024-03-29T03:38:01;6.90;1.00
24374;DHT22;12498;50.880;12.096;2024-03-29T03:40:26;7.00;1.00
24374;DHT22;12498;50.880;12.096;2024-03-29T03:42:52;7.70;1.00
24374;DHT22;12498;50.880;12.096;2024-03-29T03:45:17;6.80;99.90
24374;DHT22;12498;50.880;12.096;2024-03-29T03:47:43;7.10;99.90
24374;DHT22;12498;50.880;12.096;2024-03-29T03:50:08;7.00;1.00
24374;DHT22;12498;50.880;12.096;2024-03-29T03:52:34;7.00;99.90
24374;DHT22;12498;50.880;12.096;2024-03-29T03:55:00;7.00;99.90
24374;DHT22;12498;50.880;12.096;2024-03-29T03:57:25;7.10;1.00
24374;DHT22;12498;50.880;12.096;2024-03-29T03:59:51;7.00;99.90
24374;DHT22;12498;50.880;12.096;2024-03-29T04:02:16;6.60;1.00
24374;DHT22;12498;50.880;12.096;2024-03-29T04:04:42;7.10;99.90
24374;DHT22;12498;50.880;12.096;2024-03-29T04:07:07;7.20;99.90
24374;DHT22;12498;50.880;12.096;2024-03-29T04:09:33;7.20;99.90
24374;DHT22;12498;50.880;12.096;2024-03-29T04:11:58;7.20;99.90
24374;DHT22;12498;50.880;12.096;2024-03-29T04:14:24;7.20;1.00
24374;DHT22;12498;50.880;12.096;2024-03-29T04:16:49;7.30;99.90
24374;DHT22;12498;50.880;12.096;2024-03-29T04:19:15;7.20;99.90
24374;DHT22;12498;50.880;12.096;2024-03-29T04:21:40;7.30;99.90
24374;DHT22;12498;50.880;12.096;2024-03-29T04:24:06;7.40;1.00
24374;DHT22;12498;50.880;12.096;2024-03-29T04:26:35;7.30;99.90
24374;DHT22;12498;50.880;12.096;2024-03-29T04:29:02;7.40;1.00
24374;DHT22;12498;50.880;12.096;2024-03-29T04:31:27;7.40;1.00
24374;DHT22;12498;50.880;12.096;2024-03-29T04:33:52;7.30;99.90
24374;DHT22;12498;50.880;12.096;2024-03-29T04:36:18;7.40;1.00
24374;DHT22;12498;50.880;12.096;2024-03-29T04:38:43;7.40;1.00
24374;DHT22;12498;50.880;12.096;2024-03-29T04:41:09;7.50;1.00
24374;DHT22;12498;50.880;12.096;2024-03-29T04:43:35;7.40;1.00
24374;DHT22;12498;50.880;12.096;2024-03-29T04:46:03;7.40;1.00
24374;DHT22;12498;50.880;12.096;2024-03-29T04:48:30;7.40;1.00
24374;DHT22;12498;50.880;12.096;2024-03-29T04:50:55;7.50;1.00
24374;DHT22;12498;50.880;12.096;2024-03-29T04:53:21;7.40;99.90
24374;DHT22;12498;50.880;12.096;2024-03-29T04:55:52;8.50;99.90
24374;DHT22;12498;50.880;12.096;2024-03-29T04:58:18;7.60;1.00
24374;DHT22;12498;50.880;12.096;2024-03-29T05:00:43;7.60;1.00
24374;DHT22;12498;50.880;12.096;2024-03-29T05:03:09;7.80;1.00
24374;DHT22;12498;50.880;12.096;2024-03-29T05:05:34;7.60;99.90
24374;DHT22;12498;50.880;12.096;2024-03-29T05:08:00;7.50;1.00
24374;DHT22;12498;50.880;12.096;2024-03-29T05:10:25;7.50;1.00
24374;DHT22;12498;50.880;12.096;2024-03-29T05:12:51;7.40;99.90
24374;DHT22;12498;50.880;12.096;2024-03-29T05:15:16;7.60;1.00
24374;DHT22;12498;50.880;12.096;2024-03-29T05:17:42;7.60;99.90
24374;DHT22;12498;50.880;12.096;2024-03-29T05:20:08;7.60;99.90
24374;DHT22;12498;50.880;12.096;2024-03-29T05:22:34;7.60;1.00
24374;DHT22;12498;50.880;12.096;2024-03-29T05:24:59;7.60;99.90
24374;DHT22;12498;50.880;12.096;2024-03-29T05:27:25;7.70;99.90
24374;DHT22;12498;50.880;12.096;2024-03-29T05:29:50;7.70;99.90
24374;DHT22;12498;50.880;12.096;2024-03-29T05:32:16;7.80;99.90
24374;DHT22;12498;50.880;12.096;2024-03-29T05:34:41;7.80;99.90
24374;DHT22;12498;50.880;12.096;2024-03-29T05:37:07;7.80;1.00
24374;DHT22;12498;50.880;12.096;2024-03-29T05:39:33;7.80;1.00
24374;DHT22;12498;50.880;12.096;2024-03-29T05:41:58;7.80;25.50
24374;DHT22;12498;50.880;12.096;2024-03-29T05:44:24;7.90;99.90
24374;DHT22;12498;50.880;12.096;2024-03-29T05:46:49;8.00;1.00
24374;DHT22;12498;50.880;12.096;2024-03-29T05:49:15;8.00;1.30
24374;DHT22;12498;50.880;12.096;2024-03-29T05:51:41;8.10;1.00
24374;DHT22;12498;50.880;12.096;2024-03-29T05:54:06;8.00;27.40
24374;DHT22;12498;50.880;12.096;2024-03-29T05:56:31;8.00;82.40
24374;DHT22;12498;50.880;12.096;2024-03-29T05:58:57;7.90;99.90
24374;DHT22;12498;50.880;12.096;2024-03-29T06:01:23;8.10;27.80
24374;DHT22;12498;50.880;12.096;2024-03-29T06:03:49;8.10;99.90
24374;DHT22;12498;50.880;12.096;2024-03-29T06:06:17;8.10;99.90
24374;DHT22;12498;50.880;12.096;2024-03-29T06:08:43;8.10;99.90
24374;DHT22;12498;50.880;12.096;2024-03-29T06:11:09;8.20;99.90
24374;DHT22;12498;50.880;12.096;2024-03-29T06:13:34;8.20;99.90
24374;DHT22;12498;50.880;12.096;2024-03-29T06:16:21;8.20;99.90
24374;DHT22;12498;50.880;12.096;2024-03-29T06:19:05;8.20;99.90
24374;DHT22;12498;50.880;12.096;2024-03-29T06:21:31;8.30;99.90
24374;DHT22;12498;50.880;12.096;2024-03-29T06:24:08;8.40;99.90
24374;DHT22;12498;50.880;12.096;2024-03-29T06:26:34;8.90;99.90
24374;DHT22;12498;50.880;12.096;2024-03-29T06:29:00;8.40;1.00
24374;DHT22;12498;50.880;12.096;2024-03-29T06:31:26;8.60;99.90
24374;DHT22;12498;50.880;12.096;2024-03-29T06:33:51;8.60;1.00
24374;DHT22;12498;50.880;12.096;2024-03-29T06:36:17;8.60;1.00
24374;DHT22;12498;50.880;12.096;2024-03-29T06:38:43;8.70;1.00
24374;DHT22;12498;50.880;12.096;2024-03-29T06:41:08;8.70;1.00
24374;DHT22;12498;50.880;12.096;2024-03-29T06:43:34;8.80;42.90
24374;DHT22;12498;50.880;12.096;2024-03-29T06:45:59;8.60;99.90
24374;DHT22;12498;50.880;12.096;2024-03-29T06:48:28;8.70;99.90
24374;DHT22;12498;50.880;12.096;2024-03-29T06:50:53;8.70;1.00
24374;DHT22;12498;50.880;12.096;2024-03-29T06:53:19;8.60;99.90
24374;DHT22;12498;50.880;12.096;2024-03-29T06:55:45;8.80;99.90
24374;DHT22;12498;50.880;12.096;2024-03-29T06:58:11;8.90;99.90
24374;DHT22;12498;50.880;12.096;2024-03-29T07:00:36;8.90;99.90
24374;DHT22;12498;50.880;12.096;2024-03-29T07:03:02;8.90;99.90
24374;DHT22;12498;50.880;12.096;2024-03-29T07:05:27;9.00;1.00
24374;DHT22;12498;50.880;12.096;2024-03-29T07:07:53;8.90;99.90
24374;DHT22;12498;50.880;12.096;2024-03-29T07:10:19;9.10;1.00
24374;DHT22;12498;50.880;12.096;2024-03-29T07:12:50;9.20;1.00
24374;DHT22;12498;50.880;12.096;2024-03-29T07:15:16;9.00;99.90
24374;DHT22;12498;50.880;12.096;2024-03-29T07:17:41;9.10;99.90
24374;DHT22;12498;50.880;12.096;2024-03-29T07:20:08;9.10;99.90
24374;DHT22;12498;50.880;12.096;2024-03-29T07:22:34;9.30;1.00
24374;DHT22;12498;50.880;12.096;2024-03-29T07:24:59;9.30;99.90
24374;DHT22;12498;50.880;12.096;2024-03-29T07:27:25;9.30;31.70
24374;DHT22;12498;50.880;12.096;2024-03-29T07:29:50;9.40;99.90
24374;DHT22;12498;50.880;12.096;2024-03-29T07:32:16;9.40;99.90
24374;DHT22;12498;50.880;12.096;2024-03-29T07:34:41;9.50;99.90
24374;DHT22;12498;50.880;12.096;2024-03-29T07:37:07;9.50;1.00
24374;DHT22;12498;50.880;12.096;2024-03-29T07:39:35;9.60;99.90
24374;DHT22;12498;50.880;12.096;2024-03-29T07:42:00;9.90;99.90
24374;DHT22;12498;50.880;12.096;2024-03-29T07:44:26;9.80;1.00
24374;DHT22;12498;50.880;12.096;2024-03-29T07:46:51;9.90;1.00
24374;DHT22;12498;50.880;12.096;2024-03-29T07:49:17;9.90;1.00
24374;DHT22;12498;50.880;12.096;2024-03-29T07:51:46;9.90;1.00
24374;DHT22;12498;50.880;12.096;2024-03-29T07:54:12;9.90;1.00
24374;DHT22;12498;50.880;12.096;2024-03-29T07:56:37;10.20;1.00
24374;DHT22;12498;50.880;12.096;2024-03-29T07:59:02;10.20;99.90
24374;DHT22;12498;50.880;12.096;2024-03-29T08:01:28;10.30;99.90
24374;DHT22;12498;50.880;12.096;2024-03-29T08:03:53;10.40;99.90
24374;DHT22;12498;50.880;12.096;2024-03-29T08:06:19;10.60;1.00
24374;DHT22;12498;50.880;12.096;2024-03-29T08:08:45;10.50;99.90
24374;DHT22;12498;50.880;12.096;2024-03-29T08:11:11;10.80;1.00
24374;DHT22;12498;50.880;12.096;2024-03-29T08:13:37;11.00;1.00
24374;DHT22;12498;50.880;12.096;2024-03-29T08:16:03;11.00;1.00
24374;DHT22;12498;50.880;12.096;2024-03-29T08:18:30;11.00;1.00
24374;DHT22;12498;50.880;12.096;2024-03-29T08:20:55;11.10;1.00
24374;DHT22;12498;50.880;12.096;2024-03-29T08:23:24;11.20;1.00
24374;DHT22;12498;50.880;12.096;2024-03-29T08:25:49;11.40;99.90
24374;DHT22;12498;50.880;12.096;2024-03-29T08:28:17;11.40;1.00
24374;DHT22;12498;50.880;12.096;2024-03-29T08:30:42;11.70;99.90
24374;DHT22;12498;50.880;12.096;2024-03-29T08:33:08;11.80;99.90
24374;DHT22;12498;50.880;12.096;2024-03-29T08:35:33;12.00;99.90
24374;DHT22;12498;50.880;12.096;2024-03-29T08:38:00;12.10;99.90
24374;DHT22;12498;50.880;12.096;2024-03-29T08:40:26;12.10;99.90
24374;DHT22;12498;50.880;12.096;2024-03-29T08:42:54;12.10;99.90
24374;DHT22;12498;50.880;12.096;2024-03-29T08:45:20;12.20;1.00
24374;DHT22;12498;50.880;12.096;2024-03-29T08:47:46;12.10;1.00
24374;DHT22;12498;50.880;12.096;2024-03-29T08:50:11;12.30;1.00
24374;DHT22;12498;50.880;12.096;2024-03-29T08:52:38;12.30;1.00
24374;DHT22;12498;50.880;12.096;2024-03-29T08:55:04;12.70;1.00
24374;DHT22;12498;50.880;12.096;2024-03-29T08:57:29;12.70;99.90
24374;DHT22;12498;50.880;12.096;2024-03-29T08:59:55;12.80;99.90
24374;DHT22;12498;50.880;12.096;2024-03-29T09:02:20;13.00;99.90
24374;DHT22;12498;50.880;12.096;2024-03-29T09:04:46;13.00;99.90
24374;DHT22;12498;50.880;12.096;2024-03-29T09:07:11;13.00;1.00
24374;DHT22;12498;50.880;12.096;2024-03-29T09:09:37;13.20;99.90
24374;DHT22;12498;50.880;12.096;2024-03-29T09:12:07;12.80;1.00
24374;DHT22;12498;50.880;12.096;2024-03-29T09:14:33;13.50;99.90
24374;DHT22;12498;50.880;12.096;2024-03-29T09:16:58;13.60;99.90
24374;DHT22;12498;50.880;12.096;2024-03-29T09:19:24;13.70;99.90
24374;DHT22;12498;50.880;12.096;2024-03-29T09:21:50;13.70;1.00
24374;DHT22;12498;50.880;12.096;2024-03-29T09:24:15;13.80;99.90
24374;DHT22;12498;50.880;12.096;2024-03-29T09:26:42;14.00;99.90
24374;DHT22;12498;50.880;12.096;2024-03-29T09:29:08;13.90;1.00
24374;DHT22;12498;50.880;12.096;2024-03-29T09:31:34;14.00;1.00
24374;DHT22;12498;50.880;12.096;2024-03-29T09:34:00;14.20;1.00
24374;DHT22;12498;50.880;12.096;2024-03-29T09:36:25;14.20;99.90
24374;DHT22;12498;50.880;12.096;2024-03-29T09:38:51;14.40;99.90
24374;DHT22;12498;50.880;12.096;2024-03-29T09:41:17;14.20;99.90
24374;DHT22;12498;50.880;12.096;2024-03-29T09:43:44;14.40;99.20
24374;DHT22;12498;50.880;12.096;2024-03-29T09:46:10;14.40;99.90
24374;DHT22;12498;50.880;12.096;2024-03-29T09:48:39;14.40;22.20
24374;DHT22;12498;50.880;12.096;2024-03-29T09:51:05;14.60;20.10
24374;DHT22;12498;50.880;12.096;2024-03-29T09:53:32;14.70;99.90
24374;DHT22;12498;50.880;12.096;2024-03-29T09:55:58;14.90;58.80
24374;DHT22;12498;50.880;12.096;2024-03-29T09:58:24;14.80;61.40
24374;DHT22;12498;50.880;12.096;2024-03-29T10:00:49;14.80;67.80
24374;DHT22;12498;50.880;12.096;2024-03-29T10:03:15;14.80;99.90
24374;DHT22;12498;50.880;12.096;2024-03-29T10:05:45;14.90;1.00
24374;DHT22;12498;50.880;12.096;2024-03-29T10:08:11;15.10;1.00
24374;DHT22;12498;50.880;12.096;2024-03-29T10:10:37;15.10;3.20
24374;DHT22;12498;50.880;12.096;2024-03-29T10:13:02;15.00;1.00
24374;DHT22;12498;50.880;12.096;2024-03-29T10:15:29;12.00;1.00
24374;DHT22;12498;50.880;12.096;2024-03-29T10:17:57;15.10;99.90
24374;DHT22;12498;50.880;12.096;2024-03-29T10:20:23;13.00;1.00
24374;DHT22;12498;50.880;12.096;2024-03-29T10:22:52;15.10;67.80
24374;DHT22;12498;50.880;12.096;2024-03-29T10:25:18;15.10;18.80
24374;DHT22;12498;50.880;12.096;2024-03-29T10:27:45;15.00;13.40
24374;DHT22;12498;50.880;12.096;2024-03-29T10:30:10;14.80;1.00
24374;DHT22;12498;50.880;12.096;2024-03-29T10:32:37;14.80;20.60
24374;DHT22;12498;50.880;12.096;2024-03-29T10:35:03;14.90;45.70
24374;DHT22;12498;50.880;12.096;2024-03-29T10:37:29;14.80;22.60
24374;DHT22;12498;50.880;12.096;2024-03-29T10:39:57;14.70;26.80
24374;DHT22;12498;50.880;12.096;2024-03-29T10:42:23;14.60;31.10
24374;DHT22;12498;50.880;12.096;2024-03-29T10:44:50;14.60;15.00
24374;DHT22;12498;50.880;12.096;2024-03-29T10:47:19;14.50;70.20
24374;DHT22;12498;50.880;12.096;2024-03-29T10:49:49;14.60;1.00
24374;DHT22;12498;50.880;12.096;2024-03-29T10:52:16;14.50;16.80
24374;DHT22;12498;50.880;12.096;2024-03-29T10:54:43;14.60;40.70
24374;DHT22;12498;50.880;12.096;2024-03-29T10:57:12;14.60;41.70
24374;DHT22;12498;50.880;12.096;2024-03-29T10:59:40;14.60;81.20
24374;DHT22;12498;50.880;12.096;2024-03-29T11:02:11;14.60;29.20
24374;DHT22;12498;50.880;12.096;2024-03-29T11:04:37;14.60;32.30
24374;DHT22;12498;50.880;12.096;2024-03-29T11:07:06;17.50;51.00
24374;DHT22;12498;50.880;12.096;2024-03-29T11:09:31;14.40;23.10
24374;DHT22;12498;50.880;12.096;2024-03-29T11:11:58;14.30;25.70
24374;DHT22;12498;50.880;12.096;2024-03-29T11:14:37;14.20;50.00
24374;DHT22;12498;50.880;12.096;2024-03-29T11:17:05;14.20;66.60
24374;DHT22;12498;50.880;12.096;2024-03-29T11:19:31;13.90;37.70
24374;DHT22;12498;50.880;12.096;2024-03-29T11:21:56;13.80;55.40
24374;DHT22;12498;50.880;12.096;2024-03-29T11:24:22;13.80;99.90
24374;DHT22;12498;50.880;12.096;2024-03-29T11:26:49;13.60;80.60
24374;DHT22;12498;50.880;12.096;2024-03-29T11:29:19;13.50;77.60
24374;DHT22;12498;50.880;12.096;2024-03-29T11:31:45;13.10;98.70
24374;DHT22;12498;50.880;12.096;2024-03-29T11:34:12;13.20;99.90
24374;DHT22;12498;50.880;12.096;2024-03-29T11:36:38;13.10;99.90
24374;DHT22;12498;50.880;12.096;2024-03-29T11:39:05;12.80;99.90
24374;DHT22;12498;50.880;12.096;2024-03-29T11:41:30;12.60;99.90
24374;DHT22;12498;50.880;12.096;2024-03-29T11:43:57;12.40;99.90
24374;DHT22;12498;50.880;12.096;2024-03-29T11:46:23;12.40;1.00
24374;DHT22;12498;50.880;12.096;2024-03-29T11:48:49;14.20;1.00
24374;DHT22;12498;50.880;12.096;2024-03-29T11:51:18;12.60;1.00
24374;DHT22;12498;50.880;12.096;2024-03-29T11:53:43;12.20;99.90
24374;DHT22;12498;50.880;12.096;2024-03-29T11:56:09;12.00;99.90
24374;DHT22;12498;50.880;12.096;2024-03-29T11:58:37;12.10;1.00
24374;DHT22;12498;50.880;12.096;2024-03-29T12:01:02;12.10;1.00
24374;DHT22;12498;50.880;12.096;2024-03-29T12:03:28;11.90;1.00
24374;DHT22;12498;50.880;12.096;2024-03-29T12:05:54;12.10;99.90
24374;DHT22;12498;50.880;12.096;2024-03-29T12:08:27;12.50;1.00
24374;DHT22;12498;50.880;12.096;2024-03-29T12:10:53;12.10;99.90
24374;DHT22;12498;50.880;12.096;2024-03-29T12:13:18;11.90;1.00
24374;DHT22;12498;50.880;12.096;2024-03-29T12:15:44;11.90;99.90
24374;DHT22;12498;50.880;12.096;2024-03-29T12:18:10;12.00;99.90
24374;DHT22;12498;50.880;12.096;2024-03-29T12:20:37;11.90;1.00
24374;DHT22;12498;50.880;12.096;2024-03-29T12:23:03;11.90;99.90
24374;DHT22;12498;50.880;12.096;2024-03-29T12:25:29;12.00;99.90
24374;DHT22;12498;50.880;12.096;2024-03-29T12:27:55;12.00;99.90
24374;DHT22;12498;50.880;12.096;2024-03-29T12:30:21;12.10;1.00
24374;DHT22;12498;50.880;12.096;2024-03-29T12:32:46;12.20;99.90
24374;DHT22;12498;50.880;12.096;2024-03-29T12:35:13;12.20;1.00
24374;DHT22;12498;50.880;12.096;2024-03-29T12:37:47;12.50;99.90
24374;DHT22;12498;50.880;12.096;2024-03-29T12:40:13;12.70;1.00
24374;DHT22;12498;50.880;12.096;2024-03-29T12:42:40;12.90;99.90
24374;DHT22;12498;50.880;12.096;2024-03-29T12:45:06;12.70;1.00
24374;DHT22;12498;50.880;12.096;2024-03-29T12:47:32;13.10;99.90
24374;DHT22;12498;50.880;12.096;2024-03-29T12:49:59;13.10;99.90
24374;DHT22;12498;50.880;12.096;2024-03-29T12:52:25;13.50;1.00
24374;DHT22;12498;50.880;12.096;2024-03-29T12:54:51;13.50;99.90
24374;DHT22;12498;50.880;12.096;2024-03-29T12:57:17;13.60;99.90
24374;DHT22;12498;50.880;12.096;2024-03-29T12:59:43;13.80;99.90
24374;DHT22;12498;50.880;12.096;2024-03-29T13:02:10;14.10;1.00
24374;DHT22;12498;50.880;12.096;2024-03-29T13:04:35;14.10;1.00
24374;DHT22;12498;50.880;12.096;2024-03-29T13:07:01;14.10;99.90
24374;DHT22;12498;50.880;12.096;2024-03-29T13:09:27;14.10;99.90
24374;DHT22;12498;50.880;12.096;2024-03-29T13:11:53;14.40;99.90
24374;DHT22;12498;50.880;12.096;2024-03-29T13:14:18;14.30;99.90
24374;DHT22;12498;50.880;12.096;2024-03-29T13:16:44;14.30;99.90
24374;DHT22;12498;50.880;12.096;2024-03-29T13:19:09;14.40;99.90
24374;DHT22;12498;50.880;12.096;2024-03-29T13:21:35;14.70;99.90
24374;DHT22;12498;50.880;12.096;2024-03-29T13:24:02;14.90;99.90
24374;DHT22;12498;50.880;12.096;2024-03-29T13:26:27;14.80;1.00
24374;DHT22;12498;50.880;12.096;2024-03-29T13:28:55;15.00;99.90
24374;DHT22;12498;50.880;12.096;2024-03-29T13:31:20;15.90;99.90
24374;DHT22;12498;50.880;12.096;2024-03-29T13:33:47;15.80;99.90
24374;DHT22;12498;50.880;12.096;2024-03-29T13:36:13;16.30;1.00
24374;DHT22;12498;50.880;12.096;2024-03-29T13:38:38;16.10;5.50
24374;DHT22;12498;50.880;12.096;2024-03-29T13:41:04;16.00;23.30
24374;DHT22;12498;50.880;12.096;2024-03-29T13:43:30;16.10;70.00
24374;DHT22;12498;50.880;12.096;2024-03-29T13:45:58;16.00;99.90
24374;DHT22;12498;50.880;12.096;2024-03-29T13:48:25;15.70;93.20
24374;DHT22;12498;50.880;12.096;2024-03-29T13:50:51;15.40;99.90
24374;DHT22;12498;50.880;12.096;2024-03-29T13:53:16;15.40;1.00
24374;DHT22;12498;50.880;12.096;2024-03-29T13:55:42;15.40;1.00
24374;DHT22;12498;50.880;12.096;2024-03-29T13:58:08;15.30;1.00
24374;DHT22;12498;50.880;12.096;2024-03-29T14:00:33;15.20;1.00
24374;DHT22;12498;50.880;12.096;2024-03-29T14:02:59;15.10;44.70
24374;DHT22;12498;50.880;12.096;2024-03-29T14:05:24;15.00;1.00
24374;DHT22;12498;50.880;12.096;2024-03-29T14:07:50;15.50;1.00
24374;DHT22;12498;50.880;12.096;2024-03-29T14:10:16;15.30;1.00
24374;DHT22;12498;50.880;12.096;2024-03-29T14:12:41;15.50;99.90
24374;DHT22;12498;50.880;12.096;2024-03-29T14:17:33;15.40;99.90
24374;DHT22;12498;50.880;12.096;2024-03-29T14:19:58;15.50;99.90
24374;DHT22;12498;50.880;12.096;2024-03-29T14:22:24;15.50;99.90
24374;DHT22;12498;50.880;12.096;2024-03-29T14:27:16;15.50;99.90
24374;DHT22;12498;50.880;12.096;2024-03-29T14:29:42;15.40;36.20
24374;DHT22;12498;50.880;12.096;2024-03-29T14:32:10;15.30;84.60
24374;DHT22;12498;50.880;12.096;2024-03-29T14:34:35;15.30;99.90
24374;DHT22;12498;50.880;12.096;2024-03-29T14:37:04;15.10;1.00
24374;DHT22;12498;50.880;12.096;2024-03-29T14:39:30;15.30;99.90
24374;DHT22;12498;50.880;12.096;2024-03-29T14:41:55;15.40;99.90
24374;DHT22;12498;50.880;12.096;2024-03-29T14:44:23;15.60;99.90
24374;DHT22;12498;50.880;12.096;2024-03-29T14:46:49;15.60;99.90
24374;DHT22;12498;50.880;12.096;2024-03-29T14:49:15;15.50;99.90
24374;DHT22;12498;50.880;12.096;2024-03-29T14:51:42;15.40;1.00
24374;DHT22;12498;50.880;12.096;2024-03-29T14:54:08;15.40;1.00
24374;DHT22;12498;50.880;12.096;2024-03-29T14:56:34;15.40;1.00
24374;DHT22;12498;50.880;12.096;2024-03-29T14:59:00;15.40;1.00
24374;DHT22;12498;50.880;12.096;2024-03-29T15:01:26;15.50;99.90
24374;DHT22;12498;50.880;12.096;2024-03-29T15:03:52;15.60;99.90
24374;DHT22;12498;50.880;12.096;2024-03-29T15:06:19;15.70;99.90
24374;DHT22;12498;50.880;12.096;2024-03-29T15:08:46;16.20;99.90
24374;DHT22;12498;50.880;12.096;2024-03-29T15:11:11;16.10;1.00
24374;DHT22;12498;50.880;12.096;2024-03-29T15:13:36;16.50;99.90
24374;DHT22;12498;50.880;12.096;2024-03-29T15:16:02;16.40;8.20
24374;DHT22;12498;50.880;12.096;2024-03-29T15:18:28;16.30;21.50
24374;DHT22;12498;50.880;12.096;2024-03-29T15:20:57;16.30;91.40
24374;DHT22;12498;50.880;12.096;2024-03-29T15:23:22;16.60;1.00
24374;DHT22;12498;50.880;12.096;2024-03-29T15:25:53;16.70;80.60
24374;DHT22;12498;50.880;12.096;2024-03-29T15:28:19;16.50;10.30
24374;DHT22;12498;50.880;12.096;2024-03-29T15:35:55;16.00;47.50